Celtic Explorer — EIGB — position and weather

sailwx.info

Track history (hours):
 
Tides and Currents Weather Stations Pressure Air Temp Water Temp Dewpoint Dewpoint Depression Visibility Wind Speed Wind Dir Waves Ship Positions

Oceanographic research ship Celtic Explorer (Ireland)

Detailed information on ship capabilities available from University of Delaware's Ocean Information Center.

Last reported at 2017-Dec-11 14:22 UTC. Time now 2017-Dec-12 23:51 UTC.
Position N 50°09' W 005°03'.

Type: . MMSI: 250487000.

Date/timePositionNaut miles runAvg speedWind from/ knotsBaromVisibWave heightAir tempDewpointWater temp
2017-Dec-11 14:22N 50°09' W 005°03'0 0.0
2017-Dec-11 03:04N 50°09' W 005°03'0 0.1
2017-Dec-11 02:58N 50°09' W 005°03'0 0.0
2017-Dec-11 00:55N 50°09' W 005°03'0 0.0
2017-Dec-10 20:22N 50°09' W 005°03'0 0.0
2017-Dec-10 19:58N 50°09' W 005°03'0 0.0
2017-Dec-10 19:28N 50°09' W 005°03'0 0.0
2017-Dec-10 18:58N 50°09' W 005°03'0 0.0
2017-Dec-10 17:28N 50°09' W 005°03'0 0.0
2017-Dec-10 16:52N 50°09' W 005°03'0 0.0
2017-Dec-10 16:25N 50°09' W 005°03'0 0.0
2017-Dec-10 14:49N 50°09' W 005°03'0 0.0
2017-Dec-10 14:13N 50°09' W 005°03'0 0.0
2017-Dec-10 04:04N 50°09' W 005°03'0 0.1
2017-Dec-10 03:58N 50°09' W 005°03'0 0.0
2017-Dec-10 03:22N 50°09' W 005°03'0 0.0
2017-Dec-09 20:07N 50°09' W 005°03'0 0.0
2017-Dec-09 19:07N 50°09' W 005°03'0 0.1
2017-Dec-09 19:00N 50°09' W 005°03'0 0.5
2017-Dec-09 18:30N 50°09' W 005°03'1 3.0
2017-Dec-09 18:00N 50°08' W 005°02'3 5.3
2017-Dec-09 17:30N 50°06' W 005°02'0 0.9
2017-Dec-09 17:00N 50°05' W 005°01'0 0.3
2017-Dec-09 16:30N 50°05' W 005°02'0 0.1
2017-Dec-09 16:00N 50°05' W 005°02'0 0.1
2017-Dec-09 15:30N 50°05' W 005°02'1 1.4
2017-Dec-09 15:00N 50°04' W 005°01'2 4.1
2017-Dec-09 14:30N 50°02' W 005°01'4 8.4
2017-Dec-09 13:59N 49°59' W 005°06'131 9.7
2017-Dec-09 00:31N 51°25' W 007°42'011.4
2017-Dec-09 00:30N 51°25' W 007°42'611.2
2017-Dec-09 00:00N 51°29' W 007°48'611.2
2017-Dec-08 23:30N 51°33' W 007°55'611.3
2017-Dec-08 23:00N 51°37' W 008°01'611.4
2017-Dec-08 22:30N 51°41' W 008°08'611.2
2017-Dec-08 22:00N 51°45' W 008°14'5 9.1
2017-Dec-08 21:30N 51°49' W 008°16'3 5.2
2017-Dec-08 21:00N 51°51' W 008°20'4 8.2
2017-Dec-08 20:30N 51°54' W 008°24'2 4.1
2017-Dec-08 19:59N 51°54' W 008°27'0 0.0
2017-Dec-08 19:29N 51°54' W 008°27'0 0.0
2017-Dec-08 18:59N 51°54' W 008°27'0 0.0
2017-Dec-08 18:29N 51°54' W 008°27'0 0.0
2017-Dec-08 17:59N 51°54' W 008°27'0 0.0
2017-Dec-08 17:29N 51°54' W 008°27'0 0.0
2017-Dec-08 16:53N 51°54' W 008°27'0 0.0
2017-Dec-08 16:26N 51°54' W 008°27'0 0.0
2017-Dec-08 15:59N 51°54' W 008°27'0 0.0
2017-Dec-08 15:29N 51°54' W 008°27'0 0.0
2017-Dec-08 14:59N 51°54' W 008°27'0 0.0
2017-Dec-08 14:29N 51°54' W 008°27'0 0.0
2017-Dec-08 13:59N 51°54' W 008°27'0 0.0
2017-Dec-08 13:29N 51°54' W 008°27'0 0.0
2017-Dec-08 12:59N 51°54' W 008°27'0 0.0
2017-Dec-08 12:31N 51°54' W 008°27'1 2.8
2017-Dec-08 12:01N 51°54' W 008°25'4 7.7
2017-Dec-08 11:30N 51°52' W 008°20'3 5.7
2017-Dec-08 11:00N 51°50' W 008°16'5 9.3
2017-Dec-08 10:31N 51°46' W 008°15'5 9.5
2017-Dec-08 10:01N 51°41' W 008°17'1 1.6
2017-Dec-08 09:30N 51°40' W 008°18'0 0.7
2017-Dec-08 09:01N 51°40' W 008°17'1 2.1
2017-Dec-08 08:31N 51°40' W 008°15'1 2.5
2017-Dec-08 08:01N 51°38' W 008°15'2 4.1
2017-Dec-08 07:31N 51°36' W 008°15'0 0.6
2017-Dec-08 07:00N 51°36' W 008°16'1 1.0
2017-Dec-08 06:31N 51°36' W 008°16'1 1.1
2017-Dec-08 06:01N 51°36' W 008°17'1 1.4
2017-Dec-08 05:31N 51°35' W 008°17'1 2.2
2017-Dec-08 05:01N 51°34' W 008°18'0 0.7
2017-Dec-08 04:30N 51°34' W 008°19'1 1.3
2017-Dec-08 04:00N 51°34' W 008°17'1 1.6
2017-Dec-08 03:31N 51°34' W 008°16'1 1.8
2017-Dec-08 03:01N 51°34' W 008°15'1 2.1
2017-Dec-08 02:31N 51°35' W 008°13'1 2.1
2017-Dec-08 02:01N 51°35' W 008°12'1 2.0
2017-Dec-08 01:30N 51°35' W 008°10'1 2.5
2017-Dec-08 01:00N 51°35' W 008°08'2 3.2
2017-Dec-08 00:31N 51°36' W 008°05'2 5.0
2017-Dec-08 00:01N 51°36' W 008°01'3 5.5
2017-Dec-07 23:31N 51°36' W 007°57'3 5.5
2017-Dec-07 23:00N 51°36' W 007°53'3 5.3
2017-Dec-07 22:31N 51°36' W 007°48'3 5.3
2017-Dec-07 22:01N 51°36' W 007°44'3 5.3
2017-Dec-07 21:30N 51°37' W 007°40'3 5.2
2017-Dec-07 21:01N 51°37' W 007°36'3 5.0
2017-Dec-07 20:30N 51°37' W 007°32'2 4.9
2017-Dec-07 20:00N 51°37' W 007°28'2 4.7
2017-Dec-07 19:31N 51°37' W 007°24'2 4.7
2017-Dec-07 19:01N 51°37' W 007°20'2 4.8
2017-Dec-07 18:31N 51°37' W 007°16'7 1.4
2017-Dec-07 13:18N 51°30' W 007°18'3 9.4
2017-Dec-07 13:00N 51°30' W 007°22'4 8.8
2017-Dec-07 12:30N 51°29' W 007°29'2 3.3
2017-Dec-07 11:52N 51°29' W 007°32'2 4.5
2017-Dec-07 11:30N 51°29' W 007°35'510.4
2017-Dec-07 11:00N 51°33' W 007°40'510.5
2017-Dec-07 10:31N 51°37' W 007°46'2 4.4
2017-Dec-07 10:01N 51°38' W 007°49'2 4.0
2017-Dec-07 09:31N 51°37' W 007°52'4 8.0
2017-Dec-07 09:01N 51°35' W 007°57'5 9.9
2017-Dec-07 08:31N 51°31' W 008°03'2 4.8
2017-Dec-07 08:00N 51°30' W 008°06'2 4.0
2017-Dec-07 07:31N 51°29' W 008°09'1 2.7
2017-Dec-07 07:01N 51°29' W 008°11'1 2.1
2017-Dec-07 06:30N 51°29' W 008°13'1 1.5
2017-Dec-07 06:00N 51°29' W 008°12'1 2.1
2017-Dec-07 05:30N 51°28' W 008°10'1 1.7
2017-Dec-07 05:00N 51°29' W 008°09'1 2.0
2017-Dec-07 04:30N 51°29' W 008°07'1 2.1
2017-Dec-07 04:01N 51°29' W 008°06'1 1.9
2017-Dec-07 03:31N 51°30' W 008°04'1 2.2
2017-Dec-07 03:00N 51°30' W 008°03'0 0.7
2017-Dec-07 02:30N 51°31' W 008°03'3 5.6
2017-Dec-07 02:00N 51°29' W 008°07'3 5.6
2017-Dec-07 01:30N 51°28' W 008°11'2 4.8
2017-Dec-07 01:01N 51°27' W 008°14'1 1.9
2017-Dec-07 00:31N 51°28' W 008°13'1 1.7
2017-Dec-07 00:00N 51°28' W 008°11'1 1.8
2017-Dec-06 23:30N 51°28' W 008°10'1 1.8
2017-Dec-06 23:00N 51°28' W 008°09'1 1.8
2017-Dec-06 22:31N 51°28' W 008°07'1 1.2
2017-Dec-06 22:01N 51°29' W 008°06'1 1.5
2017-Dec-06 21:31N 51°29' W 008°05'0 0.6
2017-Dec-06 21:01N 51°29' W 008°05'  
2017-Dec-02 17:12N 50°55' W 009°07'0 2.1
2017-Dec-02 17:00N 50°54' W 009°07'42 4.9
2017-Dec-02 08:24N 51°13' W 008°07'5 4.2
2017-Dec-02 07:19N 51°16' W 008°02'0 1.6
2017-Dec-02 07:00N 51°16' W 008°02'1 1.2
2017-Dec-02 06:31N 51°17' W 008°03'1 2.1
2017-Dec-02 06:01N 51°16' W 008°01'1 1.0
2017-Dec-02 05:30N 51°16' W 008°01'1 1.8
2017-Dec-02 05:00N 51°17' W 007°60'2 3.3
2017-Dec-02 04:30N 51°18' W 007°57'2 3.3
2017-Dec-02 04:00N 51°19' W 007°55'2 3.3
2017-Dec-02 03:30N 51°20' W 007°53'2 3.4
2017-Dec-02 02:58N 51°21' W 007°51'2 3.4
2017-Dec-02 02:31N 51°21' W 007°49'2 3.5
2017-Dec-02 02:01N 51°23' W 007°46'2 3.7
2017-Dec-02 01:29N 51°24' W 007°44'3 5.7
2017-Dec-02 00:59N 51°25' W 007°40'2 3.7
2017-Dec-02 00:31N 51°26' W 007°38'35 5.0
2017-Dec-01 17:27N 51°47' W 006°52'4 4.2
2017-Dec-01 16:34N 51°49' W 006°47'1 2.8
2017-Dec-01 16:16N 51°49' W 006°45'1 2.1
2017-Dec-01 16:01N 51°49' W 006°45'2 4.0
2017-Dec-01 15:30N 51°47' W 006°43'  
Track history (hours):
 
Tides and Currents Weather Stations Pressure Air Temp Water Temp Dewpoint Dewpoint Depression Visibility Wind Speed Wind Dir Waves Ship Positions

Oceanographic research ship Celtic Explorer (Ireland)

Detailed information on ship capabilities available from University of Delaware's Ocean Information Center.

Last reported at 2017-Dec-11 14:22 UTC. Time now 2017-Dec-12 23:51 UTC.
Position N 50°09' W 005°03'.

Type: . MMSI: 250487000.

Date/timePositionNaut miles runAvg speedWind from/ knotsBaromVisibWave heightAir tempDewpointWater temp
2017-Dec-11 14:22N 50°09' W 005°03'0 0.0
2017-Dec-11 03:04N 50°09' W 005°03'0 0.1
2017-Dec-11 02:58N 50°09' W 005°03'0 0.0
2017-Dec-11 00:55N 50°09' W 005°03'0 0.0
2017-Dec-10 20:22N 50°09' W 005°03'0 0.0
2017-Dec-10 19:58N 50°09' W 005°03'0 0.0
2017-Dec-10 19:28N 50°09' W 005°03'0 0.0
2017-Dec-10 18:58N 50°09' W 005°03'0 0.0
2017-Dec-10 17:28N 50°09' W 005°03'0 0.0
2017-Dec-10 16:52N 50°09' W 005°03'0 0.0
2017-Dec-10 16:25N 50°09' W 005°03'0 0.0
2017-Dec-10 14:49N 50°09' W 005°03'0 0.0
2017-Dec-10 14:13N 50°09' W 005°03'0 0.0
2017-Dec-10 04:04N 50°09' W 005°03'0 0.1
2017-Dec-10 03:58N 50°09' W 005°03'0 0.0
2017-Dec-10 03:22N 50°09' W 005°03'0 0.0
2017-Dec-09 20:07N 50°09' W 005°03'0 0.0
2017-Dec-09 19:07N 50°09' W 005°03'0 0.1
2017-Dec-09 19:00N 50°09' W 005°03'0 0.5
2017-Dec-09 18:30N 50°09' W 005°03'1 3.0
2017-Dec-09 18:00N 50°08' W 005°02'3 5.3
2017-Dec-09 17:30N 50°06' W 005°02'0 0.9
2017-Dec-09 17:00N 50°05' W 005°01'0 0.3
2017-Dec-09 16:30N 50°05' W 005°02'0 0.1
2017-Dec-09 16:00N 50°05' W 005°02'0 0.1
2017-Dec-09 15:30N 50°05' W 005°02'1 1.4
2017-Dec-09 15:00N 50°04' W 005°01'2 4.1
2017-Dec-09 14:30N 50°02' W 005°01'4 8.4
2017-Dec-09 13:59N 49°59' W 005°06'131 9.7
2017-Dec-09 00:31N 51°25' W 007°42'011.4
2017-Dec-09 00:30N 51°25' W 007°42'611.2
2017-Dec-09 00:00N 51°29' W 007°48'611.2
2017-Dec-08 23:30N 51°33' W 007°55'611.3
2017-Dec-08 23:00N 51°37' W 008°01'611.4
2017-Dec-08 22:30N 51°41' W 008°08'611.2
2017-Dec-08 22:00N 51°45' W 008°14'5 9.1
2017-Dec-08 21:30N 51°49' W 008°16'3 5.2
2017-Dec-08 21:00N 51°51' W 008°20'4 8.2
2017-Dec-08 20:30N 51°54' W 008°24'2 4.1
2017-Dec-08 19:59N 51°54' W 008°27'0 0.0
2017-Dec-08 19:29N 51°54' W 008°27'0 0.0
2017-Dec-08 18:59N 51°54' W 008°27'0 0.0
2017-Dec-08 18:29N 51°54' W 008°27'0 0.0
2017-Dec-08 17:59N 51°54' W 008°27'0 0.0
2017-Dec-08 17:29N 51°54' W 008°27'0 0.0
2017-Dec-08 16:53N 51°54' W 008°27'0 0.0
2017-Dec-08 16:26N 51°54' W 008°27'0 0.0
2017-Dec-08 15:59N 51°54' W 008°27'0 0.0
2017-Dec-08 15:29N 51°54' W 008°27'0 0.0
2017-Dec-08 14:59N 51°54' W 008°27'0 0.0
2017-Dec-08 14:29N 51°54' W 008°27'0 0.0
2017-Dec-08 13:59N 51°54' W 008°27'0 0.0
2017-Dec-08 13:29N 51°54' W 008°27'0 0.0
2017-Dec-08 12:59N 51°54' W 008°27'0 0.0
2017-Dec-08 12:31N 51°54' W 008°27'1 2.8
2017-Dec-08 12:01N 51°54' W 008°25'4 7.7
2017-Dec-08 11:30N 51°52' W 008°20'3 5.7
2017-Dec-08 11:00N 51°50' W 008°16'5 9.3
2017-Dec-08 10:31N 51°46' W 008°15'5 9.5
2017-Dec-08 10:01N 51°41' W 008°17'1 1.6
2017-Dec-08 09:30N 51°40' W 008°18'0 0.7
2017-Dec-08 09:01N 51°40' W 008°17'1 2.1
2017-Dec-08 08:31N 51°40' W 008°15'1 2.5
2017-Dec-08 08:01N 51°38' W 008°15'2 4.1
2017-Dec-08 07:31N 51°36' W 008°15'0 0.6
2017-Dec-08 07:00N 51°36' W 008°16'1 1.0
2017-Dec-08 06:31N 51°36' W 008°16'1 1.1
2017-Dec-08 06:01N 51°36' W 008°17'1 1.4
2017-Dec-08 05:31N 51°35' W 008°17'1 2.2
2017-Dec-08 05:01N 51°34' W 008°18'0 0.7
2017-Dec-08 04:30N 51°34' W 008°19'1 1.3
2017-Dec-08 04:00N 51°34' W 008°17'1 1.6
2017-Dec-08 03:31N 51°34' W 008°16'1 1.8
2017-Dec-08 03:01N 51°34' W 008°15'1 2.1
2017-Dec-08 02:31N 51°35' W 008°13'1 2.1
2017-Dec-08 02:01N 51°35' W 008°12'1 2.0
2017-Dec-08 01:30N 51°35' W 008°10'1 2.5
2017-Dec-08 01:00N 51°35' W 008°08'2 3.2
2017-Dec-08 00:31N 51°36' W 008°05'2 5.0
2017-Dec-08 00:01N 51°36' W 008°01'3 5.5
2017-Dec-07 23:31N 51°36' W 007°57'3 5.5
2017-Dec-07 23:00N 51°36' W 007°53'3 5.3
2017-Dec-07 22:31N 51°36' W 007°48'3 5.3
2017-Dec-07 22:01N 51°36' W 007°44'3 5.3
2017-Dec-07 21:30N 51°37' W 007°40'3 5.2
2017-Dec-07 21:01N 51°37' W 007°36'3 5.0
2017-Dec-07 20:30N 51°37' W 007°32'2 4.9
2017-Dec-07 20:00N 51°37' W 007°28'2 4.7
2017-Dec-07 19:31N 51°37' W 007°24'2 4.7
2017-Dec-07 19:01N 51°37' W 007°20'2 4.8
2017-Dec-07 18:31N 51°37' W 007°16'7 1.4
2017-Dec-07 13:18N 51°30' W 007°18'3 9.4
2017-Dec-07 13:00N 51°30' W 007°22'4 8.8
2017-Dec-07 12:30N 51°29' W 007°29'2 3.3
2017-Dec-07 11:52N 51°29' W 007°32'2 4.5
2017-Dec-07 11:30N 51°29' W 007°35'510.4
2017-Dec-07 11:00N 51°33' W 007°40'510.5
2017-Dec-07 10:31N 51°37' W 007°46'2 4.4
2017-Dec-07 10:01N 51°38' W 007°49'2 4.0
2017-Dec-07 09:31N 51°37' W 007°52'4 8.0
2017-Dec-07 09:01N 51°35' W 007°57'5 9.9
2017-Dec-07 08:31N 51°31' W 008°03'2 4.8
2017-Dec-07 08:00N 51°30' W 008°06'2 4.0
2017-Dec-07 07:31N 51°29' W 008°09'1 2.7
2017-Dec-07 07:01N 51°29' W 008°11'1 2.1
2017-Dec-07 06:30N 51°29' W 008°13'1 1.5
2017-Dec-07 06:00N 51°29' W 008°12'1 2.1
2017-Dec-07 05:30N 51°28' W 008°10'1 1.7
2017-Dec-07 05:00N 51°29' W 008°09'1 2.0
2017-Dec-07 04:30N 51°29' W 008°07'1 2.1
2017-Dec-07 04:01N 51°29' W 008°06'1 1.9
2017-Dec-07 03:31N 51°30' W 008°04'1 2.2
2017-Dec-07 03:00N 51°30' W 008°03'0 0.7
2017-Dec-07 02:30N 51°31' W 008°03'3 5.6
2017-Dec-07 02:00N 51°29' W 008°07'3 5.6
2017-Dec-07 01:30N 51°28' W 008°11'2 4.8
2017-Dec-07 01:01N 51°27' W 008°14'1 1.9
2017-Dec-07 00:31N 51°28' W 008°13'1 1.7
2017-Dec-07 00:00N 51°28' W 008°11'1 1.8
2017-Dec-06 23:30N 51°28' W 008°10'1 1.8
2017-Dec-06 23:00N 51°28' W 008°09'1 1.8
2017-Dec-06 22:31N 51°28' W 008°07'1 1.2
2017-Dec-06 22:01N 51°29' W 008°06'1 1.5
2017-Dec-06 21:31N 51°29' W 008°05'0 0.6
2017-Dec-06 21:01N 51°29' W 008°05'  
2017-Dec-02 17:12N 50°55' W 009°07'0 2.1
2017-Dec-02 17:00N 50°54' W 009°07'42 4.9
2017-Dec-02 08:24N 51°13' W 008°07'5 4.2
2017-Dec-02 07:19N 51°16' W 008°02'0 1.6
2017-Dec-02 07:00N 51°16' W 008°02'1 1.2
2017-Dec-02 06:31N 51°17' W 008°03'1 2.1
2017-Dec-02 06:01N 51°16' W 008°01'1 1.0
2017-Dec-02 05:30N 51°16' W 008°01'1 1.8
2017-Dec-02 05:00N 51°17' W 007°60'2 3.3
2017-Dec-02 04:30N 51°18' W 007°57'2 3.3
2017-Dec-02 04:00N 51°19' W 007°55'2 3.3
2017-Dec-02 03:30N 51°20' W 007°53'2 3.4
2017-Dec-02 02:58N 51°21' W 007°51'2 3.4
2017-Dec-02 02:31N 51°21' W 007°49'2 3.5
2017-Dec-02 02:01N 51°23' W 007°46'2 3.7
2017-Dec-02 01:29N 51°24' W 007°44'3 5.7
2017-Dec-02 00:59N 51°25' W 007°40'2 3.7
2017-Dec-02 00:31N 51°26' W 007°38'35 5.0
2017-Dec-01 17:27N 51°47' W 006°52'4 4.2
2017-Dec-01 16:34N 51°49' W 006°47'1 2.8
2017-Dec-01 16:16N 51°49' W 006°45'1 2.1
2017-Dec-01 16:01N 51°49' W 006°45'2 4.0
2017-Dec-01 15:30N 51°47' W 006°43'  

Dump ship's entire track history